createdAt,value
2023-05-06T00:02:10.336Z,97644.60
2023-05-06T00:04:37.167Z,97636.40
2023-05-06T00:07:04.379Z,97636.20
2023-05-06T00:09:31.132Z,97636.60
2023-05-06T00:11:58.010Z,97630.60
2023-05-06T00:14:24.625Z,97634.60
2023-05-06T00:16:51.264Z,97629.40
2023-05-06T00:19:17.975Z,97631.60
2023-05-06T00:21:44.564Z,97634.40
2023-05-06T00:24:11.516Z,97637.20
2023-05-06T00:26:38.165Z,97631.20
2023-05-06T00:29:04.902Z,97629.60
2023-05-06T00:31:31.555Z,97628.20
2023-05-06T00:33:58.182Z,97622.40
2023-05-06T00:36:24.875Z,97624.40
2023-05-06T00:38:51.493Z,97625.60
2023-05-06T00:41:18.145Z,97619.60
2023-05-06T00:43:44.770Z,97616.20
2023-05-06T00:46:11.754Z,97613.20
2023-05-06T00:48:39.178Z,97612.80
2023-05-06T00:51:06.271Z,97612.80
2023-05-06T00:53:33.394Z,97606.60
2023-05-06T00:56:00.350Z,97601.40
2023-05-06T00:58:27.201Z,97597.00
2023-05-06T01:00:55.321Z,97596.20
2023-05-06T01:03:22.845Z,97593.80
2023-05-06T01:06:09.488Z,97591.60
2023-05-06T01:08:52.846Z,97597.00
2023-05-06T01:11:41.327Z,97592.00
2023-05-06T01:14:41.468Z,97596.80
2023-05-06T01:17:12.782Z,97596.00
2023-05-06T01:19:49.027Z,97595.00
2023-05-06T01:22:16.515Z,97588.60
2023-05-06T01:24:45.472Z,97583.40
2023-05-06T01:27:14.147Z,97582.00
2023-05-06T01:29:44.336Z,97577.80
2023-05-06T01:32:36.242Z,97583.80
2023-05-06T01:35:33.680Z,97582.00
2023-05-06T01:38:14.126Z,97577.80
2023-05-06T01:40:44.207Z,97571.80
2023-05-06T01:43:14.444Z,97572.20
2023-05-06T01:45:43.258Z,97566.40
2023-05-06T01:48:10.595Z,97560.80
2023-05-06T01:50:38.354Z,97557.60
2023-05-06T01:53:05.000Z,97557.00
2023-05-06T01:55:32.269Z,97556.00
2023-05-06T01:57:58.876Z,97555.40
2023-05-06T02:00:26.705Z,97554.60
2023-05-06T02:02:53.626Z,97555.80
2023-05-06T02:05:20.783Z,97552.80
2023-05-06T02:07:48.196Z,97550.80
2023-05-06T02:10:15.394Z,97549.80
2023-05-06T02:12:46.467Z,97544.80
2023-05-06T02:15:13.182Z,97553.00
2023-05-06T02:17:39.825Z,97545.60
2023-05-06T02:20:09.825Z,97544.60
2023-05-06T02:22:36.424Z,97541.00
2023-05-06T02:25:04.097Z,97540.40
2023-05-06T02:27:30.953Z,97541.60
2023-05-06T02:29:57.570Z,97533.40
2023-05-06T02:32:24.279Z,97534.40
2023-05-06T02:34:51.784Z,97533.80
2023-05-06T02:37:20.493Z,97533.40
2023-05-06T02:39:47.453Z,97529.60
2023-05-06T02:42:15.809Z,97522.60
2023-05-06T02:44:42.596Z,97523.80
2023-05-06T02:47:09.443Z,97520.60
2023-05-06T02:49:36.126Z,97522.40
2023-05-06T02:52:02.763Z,97522.00
2023-05-06T02:54:29.335Z,97516.60
2023-05-06T02:56:56.231Z,97518.60
2023-05-06T02:59:23.574Z,97523.80
2023-05-06T03:01:50.193Z,97526.80
2023-05-06T03:04:16.835Z,97524.40
2023-05-06T03:06:43.572Z,97520.80
2023-05-06T03:09:10.216Z,97520.40
2023-05-06T03:11:36.960Z,97523.40
2023-05-06T03:14:04.585Z,97527.20
2023-05-06T03:16:31.594Z,97529.40
2023-05-06T03:18:58.817Z,97523.40
2023-05-06T03:21:26.236Z,97520.40
2023-05-06T03:23:53.035Z,97522.20
2023-05-06T03:26:21.577Z,97519.80
2023-05-06T03:28:48.430Z,97526.20
2023-05-06T03:31:16.137Z,97529.20
2023-05-06T03:33:43.270Z,97531.20
2023-05-06T03:36:10.523Z,97534.00
2023-05-06T03:38:37.330Z,97533.00
2023-05-06T03:41:06.307Z,97534.60
2023-05-06T03:43:32.964Z,97544.20
2023-05-06T03:46:00.969Z,97538.80
2023-05-06T03:48:28.015Z,97542.00
2023-05-06T03:50:55.737Z,97547.20
2023-05-06T03:53:22.750Z,97543.00
2023-05-06T03:55:49.542Z,97544.40
2023-05-06T03:58:16.590Z,97545.60
2023-05-06T04:00:44.342Z,97549.20
2023-05-06T04:03:11.669Z,97544.60
2023-05-06T04:05:42.226Z,97549.60
2023-05-06T04:08:09.198Z,97562.40
2023-05-06T04:10:41.050Z,97565.60
2023-05-06T04:13:13.399Z,97567.40
2023-05-06T04:15:42.709Z,97562.80
2023-05-06T04:18:11.931Z,97563.80
2023-05-06T04:20:40.195Z,97556.80
2023-05-06T04:23:07.261Z,97557.20
2023-05-06T04:25:35.854Z,97553.00
2023-05-06T04:28:02.860Z,97542.60
2023-05-06T04:30:30.128Z,97549.80
2023-05-06T04:32:56.901Z,97535.40
2023-05-06T04:35:23.763Z,97514.80
2023-05-06T04:37:54.701Z,97514.80
2023-05-06T04:40:26.308Z,97516.80
2023-05-06T04:42:53.643Z,97522.40
2023-05-06T04:45:24.459Z,97529.00
2023-05-06T04:47:52.508Z,97533.40
2023-05-06T04:50:19.516Z,97536.60
2023-05-06T04:52:46.436Z,97533.00
2023-05-06T04:55:13.649Z,97543.40
2023-05-06T04:57:45.049Z,97548.40
2023-05-06T05:00:13.033Z,97545.00
2023-05-06T05:02:39.675Z,97574.40
2023-05-06T05:05:08.556Z,97578.00
2023-05-06T05:07:36.111Z,97578.60
2023-05-06T05:10:03.174Z,97585.00
2023-05-06T05:12:31.485Z,97584.20
2023-05-06T05:14:58.710Z,97583.80
2023-05-06T05:17:25.512Z,97578.80
2023-05-06T05:19:52.908Z,97581.20
2023-05-06T05:22:19.927Z,97584.20
2023-05-06T05:24:46.857Z,97585.40
2023-05-06T05:27:13.680Z,97587.60
2023-05-06T05:29:40.653Z,97586.60
2023-05-06T05:32:07.724Z,97581.40
2023-05-06T05:34:34.666Z,97589.20
2023-05-06T05:37:01.874Z,97588.40
2023-05-06T05:39:28.633Z,97587.20
2023-05-06T05:41:55.815Z,97587.60
2023-05-06T05:44:22.830Z,97585.60
2023-05-06T05:46:49.822Z,97587.20
2023-05-06T05:49:17.946Z,97590.40
2023-05-06T05:51:44.666Z,97587.20
2023-05-06T05:54:12.847Z,97589.40
2023-05-06T05:56:40.327Z,97592.40
2023-05-06T05:59:07.102Z,97588.60
2023-05-06T06:01:34.681Z,97598.40
2023-05-06T06:04:01.621Z,97599.20
2023-05-06T06:06:29.853Z,97602.80
2023-05-06T06:08:56.537Z,97601.00
2023-05-06T06:11:25.480Z,97599.60
2023-05-06T06:13:52.282Z,97605.00
2023-05-06T06:16:19.172Z,97605.80
2023-05-06T06:18:46.055Z,97608.20
2023-05-06T06:21:12.780Z,97612.60
2023-05-06T06:23:39.487Z,97612.60
2023-05-06T06:26:06.457Z,97619.60
2023-05-06T06:28:33.272Z,97619.00
2023-05-06T06:31:00.091Z,97619.00
2023-05-06T06:33:26.755Z,97619.20
2023-05-06T06:35:53.459Z,97620.60
2023-05-06T06:38:20.293Z,97619.00
2023-05-06T06:40:46.989Z,97621.60
2023-05-06T06:43:13.601Z,97619.20
2023-05-06T06:46:00.974Z,97618.80
2023-05-06T06:48:27.684Z,97618.60
2023-05-06T06:50:54.322Z,97619.80
2023-05-06T06:53:21.000Z,97623.80
2023-05-06T06:55:47.999Z,97618.80
2023-05-06T06:58:14.614Z,97621.80
2023-05-06T07:00:41.323Z,97620.20
2023-05-06T07:03:08.145Z,97616.00
2023-05-06T07:05:34.896Z,97617.20
2023-05-06T07:08:01.468Z,97615.80
2023-05-06T07:10:28.129Z,97618.20
2023-05-06T07:12:54.797Z,97619.40
2023-05-06T07:15:21.717Z,97616.00
2023-05-06T07:17:48.373Z,97620.00
2023-05-06T07:20:16.144Z,97617.80
2023-05-06T07:22:43.733Z,97615.20
2023-05-06T07:25:10.755Z,97619.60
2023-05-06T07:27:37.936Z,97622.60
2023-05-06T07:30:06.133Z,97619.20
2023-05-06T07:32:33.035Z,97617.00
2023-05-06T07:34:59.847Z,97614.00
2023-05-06T07:37:26.479Z,97621.00
2023-05-06T07:39:53.134Z,97623.60
2023-05-06T07:42:19.716Z,97623.60
2023-05-06T07:44:46.277Z,97627.40
2023-05-06T07:47:28.192Z,97633.80
2023-05-06T07:49:55.930Z,97635.00
2023-05-06T07:52:23.788Z,97639.20
2023-05-06T07:54:50.751Z,97640.40
2023-05-06T07:57:17.579Z,97639.00
2023-05-06T07:59:47.868Z,97644.20
2023-05-06T08:02:15.231Z,97642.40
2023-05-06T08:04:43.006Z,97643.40
2023-05-06T08:07:11.377Z,97643.60
2023-05-06T08:09:38.220Z,97643.60
2023-05-06T08:12:05.728Z,97646.80
2023-05-06T08:14:32.319Z,97651.60
2023-05-06T08:16:58.945Z,97639.80
2023-05-06T08:19:26.591Z,97641.20
2023-05-06T08:21:53.337Z,97642.00
2023-05-06T08:24:20.959Z,97643.40
2023-05-06T08:26:47.477Z,97646.80
2023-05-06T08:29:14.217Z,97639.40
2023-05-06T08:31:41.015Z,97641.80
2023-05-06T08:34:07.874Z,97640.60
2023-05-06T08:36:34.433Z,97643.80
2023-05-06T08:39:01.001Z,97643.80
2023-05-06T08:41:31.269Z,97643.60
2023-05-06T08:44:01.815Z,97645.80
2023-05-06T08:46:31.104Z,97649.00
2023-05-06T08:49:00.587Z,97642.40
2023-05-06T08:51:32.660Z,97641.60
2023-05-06T08:54:04.661Z,97641.00
2023-05-06T08:56:33.836Z,97644.20
2023-05-06T08:59:01.467Z,97643.40
2023-05-06T09:01:29.157Z,97638.00
2023-05-06T09:03:57.941Z,97636.60
2023-05-06T09:06:25.209Z,97632.60
2023-05-06T09:08:52.078Z,97628.00
2023-05-06T09:11:31.928Z,97629.60
2023-05-06T09:14:13.759Z,97630.20
2023-05-06T09:16:47.673Z,97631.40
2023-05-06T09:19:16.635Z,97632.40
2023-05-06T09:21:48.095Z,97635.80
2023-05-06T09:24:16.978Z,97641.00
2023-05-06T09:26:46.102Z,97639.00
2023-05-06T09:29:13.865Z,97638.40
2023-05-06T09:31:46.641Z,97636.40
2023-05-06T09:34:15.465Z,97638.80
2023-05-06T09:36:42.148Z,97639.60
2023-05-06T09:39:10.276Z,97638.60
2023-05-06T09:41:37.511Z,97634.60
2023-05-06T09:44:04.931Z,97632.20
2023-05-06T09:46:33.018Z,97632.20
2023-05-06T09:49:00.572Z,97626.00
2023-05-06T09:51:31.004Z,97629.80
2023-05-06T09:53:59.218Z,97627.80
2023-05-06T09:56:26.879Z,97622.40
2023-05-06T09:58:54.852Z,97619.20
2023-05-06T10:01:35.166Z,97617.80
2023-05-06T10:04:09.443Z,97621.20
2023-05-06T10:06:40.014Z,97614.60
2023-05-06T10:09:09.423Z,97617.80
2023-05-06T10:11:36.901Z,97615.40
2023-05-06T10:14:05.217Z,97611.20
2023-05-06T10:16:36.144Z,97609.80
2023-05-06T10:19:07.346Z,97607.60
2023-05-06T10:21:39.776Z,97611.20
2023-05-06T10:24:11.929Z,97606.80
2023-05-06T10:26:41.213Z,97605.80
2023-05-06T10:29:10.972Z,97598.40
2023-05-06T10:31:55.240Z,97591.00
2023-05-06T10:34:24.326Z,97590.40
2023-05-06T10:36:57.525Z,97587.40
2023-05-06T10:39:25.954Z,97587.20
2023-05-06T10:41:52.835Z,97579.80
2023-05-06T10:44:58.971Z,97578.00
2023-05-06T10:47:26.886Z,97580.60
2023-05-06T10:50:24.562Z,97583.80
2023-05-06T10:52:57.716Z,97571.80
2023-05-06T10:55:44.542Z,97570.80
2023-05-06T10:58:11.329Z,97572.80
2023-05-06T11:00:38.490Z,97575.60
2023-05-06T11:03:08.434Z,97578.40
2023-05-06T11:05:55.192Z,97580.00
2023-05-06T11:08:26.845Z,97576.60
2023-05-06T11:10:54.714Z,97582.00
2023-05-06T11:13:30.016Z,97580.60
2023-05-06T11:15:58.811Z,97575.80
2023-05-06T11:18:29.277Z,97572.20
2023-05-06T11:21:02.387Z,97574.20
2023-05-06T11:23:46.866Z,97576.60
2023-05-06T11:26:14.189Z,97572.80
2023-05-06T11:28:45.374Z,97571.20
2023-05-06T11:31:14.017Z,97571.40
2023-05-06T11:33:49.291Z,97574.00
2023-05-06T11:36:18.729Z,97578.00
2023-05-06T11:38:52.731Z,97577.40
2023-05-06T11:41:22.065Z,97579.00
2023-05-06T11:43:50.862Z,97579.00
2023-05-06T11:46:20.263Z,97574.80
2023-05-06T11:48:47.215Z,97573.20
2023-05-06T11:51:13.906Z,97571.80
2023-05-06T11:53:40.889Z,97571.20
2023-05-06T11:56:08.513Z,97571.20
2023-05-06T11:58:35.288Z,97573.20
2023-05-06T12:01:04.407Z,97573.80
2023-05-06T12:03:33.524Z,97579.80
2023-05-06T12:06:00.514Z,97587.60
2023-05-06T12:08:32.587Z,97590.00
2023-05-06T12:11:12.217Z,97589.00
2023-05-06T12:13:40.648Z,97593.00
2023-05-06T12:16:08.589Z,97600.20
2023-05-06T12:18:36.269Z,97603.60
2023-05-06T12:21:03.731Z,97607.20
2023-05-06T12:23:30.577Z,97607.20
2023-05-06T12:26:04.314Z,97610.80
2023-05-06T12:28:36.214Z,97608.00
2023-05-06T12:31:24.434Z,97600.20
2023-05-06T12:33:51.435Z,97583.20
2023-05-06T12:36:19.595Z,97583.00
2023-05-06T12:39:01.565Z,97584.20
2023-05-06T12:41:46.681Z,97593.20
2023-05-06T12:44:41.760Z,97592.60
2023-05-06T12:47:25.793Z,97592.60
2023-05-06T12:49:58.972Z,97584.60
2023-05-06T12:52:29.937Z,97580.40
2023-05-06T12:54:57.532Z,97577.80
2023-05-06T12:57:24.160Z,97581.60
2023-05-06T12:59:50.795Z,97580.60
2023-05-06T13:02:17.669Z,97574.20
2023-05-06T13:04:46.752Z,97573.20
2023-05-06T13:07:13.574Z,97569.20
2023-05-06T13:09:40.588Z,97569.40
2023-05-06T13:12:08.329Z,97572.80
2023-05-06T13:14:36.395Z,97570.00
2023-05-06T13:17:06.810Z,97563.00
2023-05-06T13:19:34.040Z,97559.80
2023-05-06T13:22:01.624Z,97555.00
2023-05-06T13:24:29.403Z,97558.80
2023-05-06T13:27:00.969Z,97549.20
2023-05-06T13:29:29.525Z,97552.80
2023-05-06T13:31:56.494Z,97550.40
2023-05-06T13:34:23.236Z,97554.60
2023-05-06T13:36:50.921Z,97554.40
2023-05-06T13:39:17.542Z,97552.20
2023-05-06T13:41:47.706Z,97549.80
2023-05-06T13:44:14.281Z,97546.20
2023-05-06T13:46:40.931Z,97543.00
2023-05-06T13:49:07.576Z,97543.80
2023-05-06T13:51:34.693Z,97544.80
2023-05-06T13:54:03.048Z,97543.40
2023-05-06T13:56:29.781Z,97545.20
2023-05-06T13:58:56.369Z,97541.20
2023-05-06T14:01:24.342Z,97539.00
2023-05-06T14:03:51.371Z,97532.20
2023-05-06T14:06:18.605Z,97536.60
2023-05-06T14:08:45.632Z,97535.20
2023-05-06T14:11:12.376Z,97530.20
2023-05-06T14:13:40.576Z,97530.40
2023-05-06T14:16:07.760Z,97531.60
2023-05-06T14:18:34.550Z,97533.00
2023-05-06T14:21:01.145Z,97529.00
2023-05-06T14:23:27.785Z,97526.80
2023-05-06T14:25:54.392Z,97525.60
2023-05-06T14:28:21.028Z,97529.60
2023-05-06T14:30:47.685Z,97534.00
2023-05-06T14:33:14.381Z,97529.60
2023-05-06T14:35:42.772Z,97527.00
2023-05-06T14:38:10.799Z,97527.60
2023-05-06T14:40:38.935Z,97525.80
2023-05-06T14:43:07.808Z,97521.60
2023-05-06T14:45:34.995Z,97520.80
2023-05-06T14:48:02.542Z,97523.80
2023-05-06T14:50:31.137Z,97527.60
2023-05-06T14:52:57.992Z,97527.20
2023-05-06T14:55:25.629Z,97532.60
2023-05-06T14:57:52.301Z,97530.80
2023-05-06T15:00:20.544Z,97533.00
2023-05-06T15:02:47.445Z,97528.80
2023-05-06T15:05:14.532Z,97528.40
2023-05-06T15:07:42.195Z,97528.20
2023-05-06T15:10:09.219Z,97526.60
2023-05-06T15:12:37.264Z,97525.20
2023-05-06T15:15:05.552Z,97523.40
2023-05-06T15:17:32.568Z,97519.20
2023-05-06T15:19:59.595Z,97519.40
2023-05-06T15:22:26.638Z,97522.60
2023-05-06T15:24:53.291Z,97522.40
2023-05-06T15:27:20.125Z,97522.60
2023-05-06T15:29:46.880Z,97519.80
2023-05-06T15:32:13.569Z,97517.20
2023-05-06T15:34:40.694Z,97522.60
2023-05-06T15:37:08.113Z,97525.80
2023-05-06T15:39:39.077Z,97523.40
2023-05-06T15:42:06.400Z,97521.00
2023-05-06T15:44:33.973Z,97520.80
2023-05-06T15:47:00.982Z,97523.00
2023-05-06T15:52:00.623Z,97524.20
2023-05-06T15:54:27.842Z,97529.80
2023-05-06T15:56:54.452Z,97527.60
2023-05-06T15:59:21.047Z,97528.00
2023-05-06T16:04:17.436Z,97520.00
2023-05-06T16:06:44.277Z,97519.40
2023-05-06T16:09:11.036Z,97516.80
2023-05-06T16:11:37.680Z,97513.00
2023-05-06T16:14:04.293Z,97504.40
2023-05-06T16:16:31.137Z,97511.60
2023-05-06T16:18:57.866Z,97515.60
2023-05-06T16:21:24.511Z,97514.00
2023-05-06T16:23:51.410Z,97517.20
2023-05-06T16:26:18.039Z,97519.80
2023-05-06T16:28:44.830Z,97514.00
2023-05-06T16:31:11.500Z,97511.20
2023-05-06T16:33:38.135Z,97503.20
2023-05-06T16:36:05.792Z,97502.40
2023-05-06T16:38:32.414Z,97504.60
2023-05-06T16:40:58.975Z,97512.80
2023-05-06T16:43:25.696Z,97511.20
2023-05-06T16:45:52.341Z,97509.40
2023-05-06T16:48:19.114Z,97512.60
2023-05-06T16:50:46.035Z,97518.00
2023-05-06T16:53:13.062Z,97518.60
2023-05-06T16:55:39.754Z,97517.40
2023-05-06T16:58:09.341Z,97516.80
2023-05-06T17:00:36.873Z,97514.20
2023-05-06T17:03:04.648Z,97515.00
2023-05-06T17:05:31.432Z,97513.20
2023-05-06T17:07:58.158Z,97512.00
2023-05-06T17:10:29.167Z,97510.00
2023-05-06T17:12:57.401Z,97516.60
2023-05-06T17:15:25.155Z,97512.00
2023-05-06T17:17:52.069Z,97508.40
2023-05-06T17:20:22.696Z,97502.40
2023-05-06T17:22:49.816Z,97496.20
2023-05-06T17:25:16.776Z,97498.80
2023-05-06T17:27:44.838Z,97500.20
2023-05-06T17:30:14.562Z,97497.80
2023-05-06T17:32:42.309Z,97496.60
2023-05-06T17:35:09.846Z,97497.80
2023-05-06T17:37:36.651Z,97504.40
2023-05-06T17:40:05.992Z,97503.80
2023-05-06T17:42:34.241Z,97509.60
2023-05-06T17:45:01.052Z,97509.80
2023-05-06T17:47:30.165Z,97510.40
2023-05-06T17:49:57.393Z,97511.80
2023-05-06T17:52:28.411Z,97515.00
2023-05-06T17:55:10.779Z,97514.20
2023-05-06T17:57:41.672Z,97516.60
2023-05-06T18:00:09.524Z,97511.60
2023-05-06T18:02:39.064Z,97514.80
2023-05-06T18:05:06.681Z,97513.20
2023-05-06T18:07:35.224Z,97518.80
2023-05-06T18:10:02.102Z,97522.20
2023-05-06T18:12:28.869Z,97521.40
2023-05-06T18:14:56.798Z,97525.00
2023-05-06T18:17:23.827Z,97529.60
2023-05-06T18:19:50.738Z,97531.40
2023-05-06T18:22:17.360Z,97532.60
2023-05-06T18:24:43.999Z,97533.60
2023-05-06T18:27:11.533Z,97534.40
2023-05-06T18:29:38.108Z,97532.20
2023-05-06T18:32:06.720Z,97534.40
2023-05-06T18:34:34.307Z,97540.00
2023-05-06T18:37:01.447Z,97538.00
2023-05-06T18:39:28.012Z,97539.00
2023-05-06T18:41:54.608Z,97546.00
2023-05-06T18:44:21.250Z,97549.40
2023-05-06T18:46:47.822Z,97553.20
2023-05-06T18:49:14.580Z,97554.60
2023-05-06T18:51:41.329Z,97555.40
2023-05-06T18:54:08.306Z,97557.20
2023-05-06T18:56:36.752Z,97555.60
2023-05-06T18:59:03.469Z,97554.20
2023-05-06T19:01:30.181Z,97553.20
2023-05-06T19:03:57.129Z,97552.00
2023-05-06T19:06:23.726Z,97551.80
2023-05-06T19:08:50.721Z,97552.20
2023-05-06T19:11:21.168Z,97550.40
2023-05-06T19:13:47.882Z,97548.00
2023-05-06T19:16:14.591Z,97547.20
2023-05-06T19:18:41.401Z,97542.20
2023-05-06T19:21:12.299Z,97540.20
2023-05-06T19:23:39.455Z,97545.60
2023-05-06T19:26:08.399Z,97541.80
2023-05-06T19:28:35.424Z,97540.80
2023-05-06T19:31:10.540Z,97544.20
2023-05-06T19:33:39.060Z,97546.40
2023-05-06T19:36:06.873Z,97550.60
2023-05-06T19:38:34.162Z,97551.00
2023-05-06T19:41:01.301Z,97553.20
2023-05-06T19:43:28.327Z,97557.40
2023-05-06T19:45:55.071Z,97561.20
2023-05-06T19:48:23.658Z,97563.80
2023-05-06T19:50:51.539Z,97570.60
2023-05-06T19:53:18.252Z,97567.20
2023-05-06T19:55:44.809Z,97569.40
2023-05-06T19:58:14.101Z,97561.80
2023-05-06T20:00:40.847Z,97563.60
2023-05-06T20:03:08.106Z,97567.60
2023-05-06T20:05:34.899Z,97568.00
2023-05-06T20:08:01.677Z,97565.80
2023-05-06T20:10:29.118Z,97561.40
2023-05-06T20:12:57.804Z,97560.60
2023-05-06T20:15:26.545Z,97559.00
2023-05-06T20:17:53.299Z,97555.80
2023-05-06T20:20:20.423Z,97561.00
2023-05-06T20:22:47.102Z,97563.60
2023-05-06T20:25:17.546Z,97558.00
2023-05-06T20:27:45.283Z,97557.00
2023-05-06T20:30:12.828Z,97554.40
2023-05-06T20:32:41.078Z,97561.00
2023-05-06T20:35:09.028Z,97557.00
2023-05-06T20:37:36.850Z,97562.80
2023-05-06T20:40:08.503Z,97562.00
2023-05-06T20:42:35.223Z,97565.20
2023-05-06T20:45:02.754Z,97559.80
2023-05-06T20:47:29.478Z,97560.20
2023-05-06T20:49:56.762Z,97556.60
2023-05-06T20:52:23.355Z,97555.00
2023-05-06T20:54:49.955Z,97554.20
2023-05-06T20:57:17.287Z,97558.20
2023-05-06T20:59:44.452Z,97557.00
2023-05-06T21:02:11.445Z,97556.60
2023-05-06T21:04:38.219Z,97551.40
2023-05-06T21:07:04.883Z,97553.00
2023-05-06T21:09:31.472Z,97552.40
2023-05-06T21:11:59.045Z,97550.60
2023-05-06T21:14:26.933Z,97558.20
2023-05-06T21:16:54.243Z,97547.20
2023-05-06T21:19:21.124Z,97552.00
2023-05-06T21:21:48.282Z,97548.80
2023-05-06T21:24:15.522Z,97550.60
2023-05-06T21:26:42.189Z,97552.60
2023-05-06T21:29:09.018Z,97556.80
2023-05-06T21:31:35.694Z,97576.40
2023-05-06T21:34:04.102Z,97576.40
2023-05-06T21:36:31.254Z,97581.80
2023-05-06T21:39:08.716Z,97590.00
2023-05-06T21:41:36.273Z,97595.00
2023-05-06T21:44:04.481Z,97595.40
2023-05-06T21:46:32.796Z,97598.20
2023-05-06T21:49:00.346Z,97595.00
2023-05-06T21:51:29.244Z,97585.60
2023-05-06T21:53:55.903Z,97586.80
2023-05-06T21:56:22.846Z,97584.40
2023-05-06T21:58:49.561Z,97588.80
2023-05-06T22:01:16.371Z,97587.20
2023-05-06T22:03:44.645Z,97586.80
2023-05-06T22:06:12.616Z,97581.20
2023-05-06T22:08:40.013Z,97577.20
2023-05-06T22:11:07.068Z,97578.00
2023-05-06T22:13:33.729Z,97578.00
2023-05-06T22:16:00.701Z,97581.00
2023-05-06T22:18:28.045Z,97578.40
2023-05-06T22:20:56.739Z,97577.20
2023-05-06T22:23:24.438Z,97573.20
2023-05-06T22:25:54.408Z,97575.00
2023-05-06T22:28:21.668Z,97577.00
2023-05-06T22:30:48.512Z,97574.40
2023-05-06T22:33:15.144Z,97571.80
2023-05-06T22:35:41.817Z,97571.80
2023-05-06T22:38:08.476Z,97572.80
2023-05-06T22:40:35.177Z,97572.20
2023-05-06T22:43:01.809Z,97570.80
2023-05-06T22:45:28.425Z,97570.40
2023-05-06T22:47:55.952Z,97561.80
2023-05-06T22:50:22.760Z,97565.40
2023-05-06T22:52:49.411Z,97569.80
2023-05-06T22:55:16.207Z,97570.80
2023-05-06T22:57:42.831Z,97565.40
2023-05-06T23:00:12.553Z,97566.80
2023-05-06T23:02:39.796Z,97569.20
2023-05-06T23:05:07.308Z,97565.60
2023-05-06T23:07:34.009Z,97564.00
2023-05-06T23:10:01.272Z,97568.80
2023-05-06T23:12:33.465Z,97570.00
2023-05-06T23:15:00.862Z,97571.00
2023-05-06T23:17:27.606Z,97574.40
2023-05-06T23:19:54.271Z,97570.80
2023-05-06T23:22:21.008Z,97570.20
2023-05-06T23:24:47.611Z,97566.40
2023-05-06T23:27:14.222Z,97565.40
2023-05-06T23:29:41.204Z,97570.20
2023-05-06T23:32:08.052Z,97567.00
2023-05-06T23:34:34.715Z,97552.60
2023-05-06T23:37:01.361Z,97544.80
2023-05-06T23:39:28.149Z,97540.60
2023-05-06T23:41:54.730Z,97541.20
2023-05-06T23:44:21.324Z,97541.60
2023-05-06T23:46:47.984Z,97547.20
2023-05-06T23:49:15.158Z,97545.20
2023-05-06T23:51:41.927Z,97545.40
2023-05-06T23:54:08.578Z,97536.80
2023-05-06T23:56:35.984Z,97533.80
2023-05-06T23:59:02.728Z,97536.40
